Time;durP1;ratioP1;P1;durP2;ratioP2;P2;SDS_P1;SDS_P2;PMS_P1;PMS_P2;Temp;Humidity;BMP_temperature;BMP_pressure;BME280_temperature;BME280_humidity;BME280_pressure;Samples;Min_cycle;Max_cycle;Signal;HPM_P1;HPM_P2
2023/09/10 00:02:00;;;;;;;31.83;26.70;;;;;;;18.24;100.00;101988.19;4883041;29;20221;-71
2023/09/10 00:04:26;;;;;;;28.43;25.33;;;;;;;18.52;100.00;101987.75;4885089;29;20219;-71
2023/09/10 00:06:52;;;;;;;26.17;22.90;;;;;;;17.72;100.00;101936.78;4885318;29;20185;-71
2023/09/10 00:09:18;;;;;;;23.97;21.47;;;;;;;17.36;100.00;101959.13;4876798;29;20480;-71
2023/09/10 00:11:43;;;;;;;24.73;22.13;;;;;;;18.07;100.00;102009.63;4887587;29;20520;-71
2023/09/10 00:14:09;;;;;;;22.50;20.20;;;;;;;17.93;100.00;101970.06;4899370;29;20250;-71
2023/09/10 00:16:34;;;;;;;23.00;20.60;;;;;;;17.50;100.00;101887.50;4882621;29;20181;-71
2023/09/10 00:18:59;;;;;;;20.33;18.27;;;;;;;17.53;100.00;101946.72;4884130;29;20248;-72
2023/09/10 00:21:25;;;;;;;21.03;18.53;;;;;;;17.65;100.00;101957.72;4882895;29;20205;-71
2023/09/10 00:23:50;;;;;;;18.70;16.80;;;;;;;17.90;100.00;101965.06;4890451;29;20221;-71
2023/09/10 00:26:16;;;;;;;17.27;15.43;;;;;;;18.15;100.00;101987.66;4872429;29;20189;-71
2023/09/10 00:28:41;;;;;;;16.30;14.60;;;;;;;17.46;100.00;101858.31;4879523;29;20539;-72
2023/09/10 00:31:07;;;;;;;15.93;14.33;;;;;;;18.19;100.00;101977.16;4868263;29;20180;-71
2023/09/10 00:33:33;;;;;;;16.87;15.07;;;;;;;18.25;100.00;101939.09;4886949;29;20773;-71
2023/09/10 00:35:58;;;;;;;16.97;15.23;;;;;;;18.21;100.00;101937.88;4881079;29;20455;-70
2023/09/10 00:38:25;;;;;;;17.20;15.40;;;;;;;17.81;100.00;101869.53;4872640;29;20190;-71
2023/09/10 00:40:50;;;;;;;18.43;16.50;;;;;;;18.30;100.00;101935.72;4879890;29;20185;-71
2023/09/10 00:43:16;;;;;;;18.03;16.07;;;;;;;18.18;100.00;101907.63;4868611;29;20468;-71
2023/09/10 00:45:41;;;;;;;16.87;15.10;;;;;;;18.08;100.00;101929.88;4875743;29;20205;-71
2023/09/10 00:48:07;;;;;;;18.90;16.87;;;;;;;18.06;100.00;101929.25;4875937;29;20188;-71
2023/09/10 00:50:33;;;;;;;16.47;14.77;;;;;;;18.07;100.00;101918.16;4867173;29;20252;-71
2023/09/10 00:52:59;;;;;;;16.30;14.67;;;;;;;17.92;100.00;101908.69;4873339;29;20209;-71
2023/09/10 00:55:29;;;;;;;18.23;16.33;;;;;;;18.18;100.00;101930.19;4867584;29;20460;-71
2023/09/10 00:57:55;;;;;;;16.87;15.07;;;;;;;18.53;100.00;101922.28;4886883;29;20449;-72
2023/09/10 01:00:21;;;;;;;17.57;15.70;;;;;;;18.00;100.00;101900.28;4867391;29;20449;-71
2023/09/10 01:02:48;;;;;;;15.90;14.30;;;;;;;18.03;100.00;101894.41;4866004;29;20492;-71
2023/09/10 01:05:16;;;;;;;16.10;14.40;;;;;;;18.04;100.00;101899.59;4892046;29;20453;-72
2023/09/10 01:07:42;;;;;;;17.33;14.57;;;;;;;17.99;100.00;101920.31;4871996;29;20445;-72
2023/09/10 01:10:08;;;;;;;14.37;12.97;;;;;;;18.11;100.00;101906.84;4878488;29;20862;-72
2023/09/10 01:12:45;;;;;;;15.75;14.05;;;;;;;17.98;100.00;101926.81;4878555;29;20553;-71
2023/09/10 01:15:25;;;;;;;15.30;13.80;;;;;;;18.04;100.00;101915.88;4886472;29;20934;-71
2023/09/10 01:18:20;;;;;;;13.97;12.47;;;;;;;18.01;100.00;101929.06;4887866;29;20437;-71
2023/09/10 01:20:51;;;;;;;13.23;11.93;;;;;;;17.96;100.00;101920.75;4886381;29;20444;-71
2023/09/10 01:23:37;;;;;;;12.30;10.70;;;;;;;17.37;100.00;101831.44;4886231;29;20461;-71
2023/09/10 01:26:03;;;;;;;11.40;10.30;;;;;;;17.83;100.00;101919.81;4886354;29;20469;-72
2023/09/10 01:28:28;;;;;;;10.23;9.20;;;;;;;17.92;100.00;101909.53;4885994;29;20464;-72
2023/09/10 01:30:54;;;;;;;10.03;9.03;;;;;;;17.75;100.00;101859.53;4886749;29;20668;-72
2023/09/10 01:33:31;;;;;;;9.17;8.10;;;;;;;17.90;100.00;101919.75;4899349;29;21220;-71
2023/09/10 01:36:07;;;;;;;9.50;8.53;;;;;;;17.78;100.00;101922.34;4886568;29;20316;-71
2023/09/10 01:39:08;;;;;;;9.60;8.70;;;;;;;17.47;100.00;101934.00;4884816;29;20449;-72
2023/09/10 01:41:35;;;;;;;9.70;8.73;;;;;;;17.00;100.00;101852.13;4885604;29;20493;-71
2023/09/10 01:44:01;;;;;;;9.53;8.53;;;;;;;17.43;100.00;101897.53;4860951;29;20461;-71
2023/09/10 01:46:27;;;;;;;8.57;7.73;;;;;;;17.51;100.00;101934.44;4868139;29;20468;-71
2023/09/10 01:48:54;;;;;;;6.40;5.80;;;;;;;17.66;100.00;101918.66;4874720;29;20656;-71
2023/09/10 01:51:20;;;;;;;7.27;6.50;;;;;;;17.12;100.00;101842.25;4861211;29;20540;-72
2023/09/10 01:53:46;;;;;;;6.53;5.93;;;;;;;17.21;100.00;101853.66;4890994;29;20517;-72
2023/09/10 01:56:12;;;;;;;6.30;5.70;;;;;;;17.79;100.00;101905.03;4870803;29;20370;-72
2023/09/10 01:58:38;;;;;;;7.53;6.83;;;;;;;17.42;100.00;101890.47;4872209;29;20453;-71
2023/09/10 02:01:06;;;;;;;7.50;6.80;;;;;;;17.49;100.00;101914.81;4881199;29;20428;-71
2023/09/10 02:03:31;;;;;;;7.37;6.67;;;;;;;16.93;100.00;101916.38;4882618;29;20473;-71
2023/09/10 02:05:58;;;;;;;6.93;6.23;;;;;;;17.07;100.00;101890.06;4867076;29;20445;-71
2023/09/10 02:08:24;;;;;;;6.77;6.03;;;;;;;17.39;100.00;101923.44;4868315;29;22099;-71
2023/09/10 02:10:49;;;;;;;6.73;6.10;;;;;;;17.60;100.00;101919.53;4889198;29;20457;-71
2023/09/10 02:13:15;;;;;;;5.83;5.23;;;;;;;17.33;100.00;101906.16;4869903;29;20240;-71
2023/09/10 02:15:40;;;;;;;5.47;4.87;;;;;;;17.35;100.00;101897.78;4868414;29;20204;-71
2023/09/10 02:18:06;;;;;;;5.20;4.70;;;;;;;17.47;100.00;101914.19;4874221;29;20193;-71
2023/09/10 02:20:36;;;;;;;6.10;5.50;;;;;;;17.07;100.00;101928.00;4871534;29;20197;-71
2023/09/10 02:23:02;;;;;;;5.63;5.03;;;;;;;17.14;100.00;101912.50;4866567;29;20205;-71
2023/09/10 02:25:29;;;;;;;5.43;4.80;;;;;;;16.98;100.00;101905.72;4874740;29;20875;-72
2023/09/10 02:27:56;;;;;;;5.73;5.13;;;;;;;16.65;100.00;101848.91;4867048;29;20449;-71
2023/09/10 02:30:21;;;;;;;5.00;4.50;;;;;;;17.16;100.00;101922.09;4870628;29;20450;-71
2023/09/10 02:32:47;;;;;;;4.50;3.70;;;;;;;17.30;100.00;101941.84;4868568;29;20982;-72
2023/09/10 02:35:12;;;;;;;3.60;2.80;;;;;;;16.49;100.00;101804.22;4865683;29;20188;-72
2023/09/10 02:37:37;;;;;;;3.60;2.67;;;;;;;16.57;100.00;101841.03;4873530;29;20212;-71
2023/09/10 02:40:06;;;;;;;3.00;2.07;;;;;;;17.30;100.00;101939.13;4868097;29;20181;-72
2023/09/10 02:42:31;;;;;;;3.20;2.20;;;;;;;17.15;100.00;101933.16;4890042;29;20216;-71
2023/09/10 02:44:58;;;;;;;3.10;2.17;;;;;;;17.02;100.00;101941.34;4867175;29;20966;-71
2023/09/10 02:47:24;;;;;;;3.17;2.33;;;;;;;17.12;100.00;101911.91;4869289;29;20189;-72
2023/09/10 02:49:50;;;;;;;3.30;2.07;;;;;;;16.47;100.00;101868.56;4887238;29;20452;-72
2023/09/10 02:52:15;;;;;;;2.90;1.90;;;;;;;16.88;100.00;101900.75;4865410;29;20273;-72
2023/09/10 02:54:41;;;;;;;2.70;2.00;;;;;;;17.12;100.00;101928.16;4887808;29;20223;-72
2023/09/10 02:57:06;;;;;;;2.60;1.60;;;;;;;16.49;100.00;101850.25;4892675;29;20226;-72
2023/09/10 02:59:32;;;;;;;2.83;1.90;;;;;;;16.64;100.00;101932.06;4877945;29;20556;-71
2023/09/10 03:01:57;;;;;;;2.97;2.33;;;;;;;16.58;100.00;101927.50;4872229;29;20220;-72
2023/09/10 03:04:22;;;;;;;3.23;2.50;;;;;;;16.49;100.00;101940.44;4861955;29;20782;-71
2023/09/10 03:06:49;;;;;;;3.33;2.60;;;;;;;16.20;100.00;101957.09;4876295;29;20192;-71
2023/09/10 03:09:15;;;;;;;3.17;2.60;;;;;;;17.00;100.00;101963.25;4871080;29;20194;-71
2023/09/10 03:11:42;;;;;;;5.87;3.30;;;;;;;16.62;100.00;101892.69;4877366;29;20507;-72
2023/09/10 03:14:09;;;;;;;4.53;3.30;;;;;;;16.49;100.00;101894.41;4894712;29;20437;-71
2023/09/10 03:16:36;;;;;;;3.90;2.50;;;;;;;16.76;100.00;101940.41;4897928;29;20489;-71
2023/09/10 03:19:01;;;;;;;3.37;2.70;;;;;;;16.99;100.00;101934.47;4900357;29;20983;-71
2023/09/10 03:21:27;;;;;;;4.47;2.90;;;;;;;16.97;100.00;101927.59;4877887;29;20588;-71
2023/09/10 03:23:53;;;;;;;4.30;3.20;;;;;;;17.20;100.00;101924.38;4883351;29;20196;-71
2023/09/10 03:26:19;;;;;;;3.37;2.73;;;;;;;16.52;100.00;101863.34;4898992;29;20236;-71
2023/09/10 03:28:45;;;;;;;3.20;2.60;;;;;;;16.31;100.00;101874.44;4881897;29;20445;-71
2023/09/10 03:31:10;;;;;;;3.73;2.83;;;;;;;16.61;100.00;101918.94;4883339;29;20181;-72
2023/09/10 03:33:35;;;;;;;3.40;2.80;;;;;;;16.82;100.00;101934.13;4882973;29;20216;-71
2023/09/10 03:36:01;;;;;;;3.87;2.80;;;;;;;16.79;100.00;101915.59;4873367;29;20211;-71
2023/09/10 03:38:26;;;;;;;3.37;2.77;;;;;;;16.64;100.00;101890.59;4882144;29;20188;-71
2023/09/10 03:40:52;;;;;;;3.00;2.40;;;;;;;16.67;100.00;101920.81;4897644;29;20177;-72
2023/09/10 03:43:17;;;;;;;3.17;2.40;;;;;;;16.61;100.00;101859.34;4869463;29;20221;-71
2023/09/10 03:45:43;;;;;;;3.20;2.67;;;;;;;16.60;100.00;101844.13;4875077;29;20190;-72
2023/09/10 03:48:09;;;;;;;3.40;2.83;;;;;;;16.86;100.00;101900.13;4871475;29;20224;-71
2023/09/10 03:50:35;;;;;;;3.57;3.20;;;;;;;16.80;100.00;101916.41;4869117;29;20647;-72
2023/09/10 03:53:00;;;;;;;3.70;3.03;;;;;;;16.33;100.00;101816.31;4869911;29;20460;-71
2023/09/10 03:55:26;;;;;;;3.73;3.03;;;;;;;16.77;100.00;101917.66;4867448;29;20451;-72
2023/09/10 03:57:51;;;;;;;3.67;2.97;;;;;;;16.19;100.00;101804.69;4876169;29;20197;-71
2023/09/10 04:00:17;;;;;;;3.67;3.20;;;;;;;16.73;100.00;101927.25;4863446;29;20186;-72
2023/09/10 04:02:42;;;;;;;3.50;3.10;;;;;;;16.76;100.00;101915.16;4889042;29;20213;-71
2023/09/10 04:05:12;;;;;;;4.27;3.70;;;;;;;16.89;100.00;101904.28;4885581;29;20185;-72
2023/09/10 04:07:38;;;;;;;4.50;4.03;;;;;;;16.79;100.00;101882.25;4868282;29;20192;-71
2023/09/10 04:10:06;;;;;;;4.07;3.53;;;;;;;16.48;100.00;101848.56;4876528;29;20935;-71
2023/09/10 04:12:32;;;;;;;3.93;3.53;;;;;;;16.48;100.00;101895.44;4868620;29;20460;-72
2023/09/10 04:14:57;;;;;;;4.70;4.20;;;;;;;16.41;100.00;101931.69;4873015;29;20440;-71
2023/09/10 04:17:23;;;;;;;3.90;3.43;;;;;;;16.54;100.00;101936.25;4876473;29;20542;-71
2023/09/10 04:19:48;;;;;;;4.37;3.97;;;;;;;16.57;100.00;101922.28;4866532;29;20548;-71
2023/09/10 04:22:14;;;;;;;5.10;4.00;;;;;;;16.21;100.00;101894.66;4872344;29;20300;-71
2023/09/10 04:24:40;;;;;;;4.37;3.97;;;;;;;16.62;100.00;101920.59;4866408;29;21227;-71
2023/09/10 04:27:06;;;;;;;4.43;4.03;;;;;;;16.24;100.00;101875.28;4865816;29;20485;-72
2023/09/10 04:29:31;;;;;;;4.30;3.80;;;;;;;16.38;100.00;101935.66;4869106;29;20854;-71
2023/09/10 04:31:57;;;;;;;4.00;3.60;;;;;;;16.34;100.00;101931.69;4869582;29;20240;-71
2023/09/10 04:34:22;;;;;;;4.10;3.70;;;;;;;16.50;100.00;101936.69;4876714;29;20185;-72
2023/09/10 04:36:47;;;;;;;4.23;3.63;;;;;;;16.50;100.00;101938.56;4867667;29;20201;-71
2023/09/10 04:39:13;;;;;;;3.73;3.20;;;;;;;16.05;100.00;101865.31;4867633;29;20250;-71
2023/09/10 04:41:38;;;;;;;5.23;4.33;;;;;;;16.19;100.00;101923.81;4874149;29;20305;-71
2023/09/10 04:44:04;;;;;;;4.40;4.00;;;;;;;16.26;100.00;101911.09;4870670;29;20578;-71
2023/09/10 04:46:30;;;;;;;4.40;4.00;;;;;;;16.52;100.00;101932.91;4885333;29;20186;-71
2023/09/10 04:48:57;;;;;;;5.80;4.27;;;;;;;16.59;100.00;101948.13;4875830;29;20189;-71
2023/09/10 04:51:23;;;;;;;7.00;5.23;;;;;;;16.54;100.00;101952.50;4880524;29;20407;-71
2023/09/10 04:53:48;;;;;;;5.37;4.87;;;;;;;15.95;100.00;101891.97;4873558;29;20540;-71
2023/09/10 04:56:14;;;;;;;5.07;4.57;;;;;;;16.51;100.00;101953.75;4883405;29;20261;-71
2023/09/10 04:58:39;;;;;;;5.03;4.37;;;;;;;16.68;100.00;101962.25;4874619;29;20952;-71
2023/09/10 05:01:05;;;;;;;5.70;5.13;;;;;;;16.50;100.00;101969.16;4873070;29;20216;-71
2023/09/10 05:03:31;;;;;;;5.10;4.60;;;;;;;16.15;100.00;101910.91;4883182;29;20691;-71
2023/09/10 05:06:00;;;;;;;5.70;5.10;;;;;;;16.33;100.00;101943.56;4872236;29;20189;-70
2023/09/10 05:08:27;;;;;;;6.10;5.50;;;;;;;16.18;100.00;101926.72;4878932;29;20213;-71
2023/09/10 05:10:52;;;;;;;5.57;5.07;;;;;;;15.98;100.00;101922.16;4881872;29;21005;-71
2023/09/10 05:13:18;;;;;;;5.97;5.37;;;;;;;16.36;100.00;101967.53;4898313;29;20551;-71
2023/09/10 05:15:48;;;;;;;5.43;4.87;;;;;;;16.52;100.00;101981.66;4888736;29;20221;-71
2023/09/10 05:18:14;;;;;;;5.57;4.57;;;;;;;16.50;100.00;101979.19;4888257;29;20288;-72
2023/09/10 05:20:40;;;;;;;5.20;4.60;;;;;;;15.82;100.00;101950.47;4901259;29;20448;-71
2023/09/10 05:23:05;;;;;;;4.87;4.37;;;;;;;15.96;100.00;102008.09;4885326;29;20954;-71
2023/09/10 05:25:34;;;;;;;5.17;4.53;;;;;;;15.70;100.00;101959.38;4887411;29;20185;-71
2023/09/10 05:27:59;;;;;;;5.47;4.90;;;;;;;16.20;100.00;102027.50;4885856;29;20238;-71
2023/09/10 05:30:24;;;;;;;6.60;5.90;;;;;;;16.42;100.00;102023.53;4885846;29;20434;-71
2023/09/10 05:32:50;;;;;;;7.23;6.50;;;;;;;16.30;100.00;101981.91;4885260;29;20205;-71
2023/09/10 05:35:15;;;;;;;6.93;6.20;;;;;;;16.22;100.00;101961.28;4902037;29;20200;-71
2023/09/10 05:37:41;;;;;;;6.20;5.60;;;;;;;16.18;100.00;101964.63;4882923;29;20200;-71
2023/09/10 05:40:07;;;;;;;6.40;5.80;;;;;;;16.19;100.00;102005.00;4879801;29;20264;-71
2023/09/10 05:42:32;;;;;;;6.30;5.70;;;;;;;16.35;100.00;102017.31;4883215;29;20228;-71
2023/09/10 05:44:57;;;;;;;6.03;5.30;;;;;;;16.15;100.00;102014.59;4884735;29;20869;-71
2023/09/10 05:47:23;;;;;;;7.13;6.43;;;;;;;16.11;100.00;101978.13;4885661;29;20207;-71
2023/09/10 05:49:51;;;;;;;6.70;6.00;;;;;;;16.43;100.00;101998.16;4885004;29;20185;-71
2023/09/10 05:52:17;;;;;;;7.90;6.87;;;;;;;16.52;100.00;101987.94;4881699;29;20216;-71
2023/09/10 05:54:42;;;;;;;7.43;6.57;;;;;;;16.46;100.00;102002.28;4882861;29;20449;-71
2023/09/10 05:57:08;;;;;;;7.63;6.83;;;;;;;16.62;100.00;101998.31;4899387;29;20188;-71
2023/09/10 05:59:33;;;;;;;8.17;7.00;;;;;;;16.57;100.00;102007.06;4879921;29;20185;-71
2023/09/10 06:01:58;;;;;;;7.30;6.60;;;;;;;16.52;100.00;101982.50;4883305;29;20221;-71
2023/09/10 06:04:24;;;;;;;7.27;6.53;;;;;;;16.26;100.00;101953.59;4883564;29;20185;-72
2023/09/10 06:06:49;;;;;;;7.57;6.77;;;;;;;16.16;100.00;102007.31;4884828;29;20460;-71
2023/09/10 06:09:15;;;;;;;7.67;6.97;;;;;;;16.09;100.00;101945.06;4885714;29;20561;-71
2023/09/10 06:11:40;;;;;;;7.77;6.97;;;;;;;16.51;100.00;101986.25;4876000;29;20645;-71
2023/09/10 06:14:05;;;;;;;7.97;7.17;;;;;;;16.23;100.00;101940.47;4879115;29;20663;-71
2023/09/10 06:16:31;;;;;;;8.50;7.37;;;;;;;16.93;100.00;102031.03;4882058;29;20277;-71
2023/09/10 06:18:56;;;;;;;8.07;7.27;;;;;;;16.70;100.00;102007.06;4884957;29;20177;-71
2023/09/10 06:21:22;;;;;;;8.37;7.57;;;;;;;16.77;100.00;102015.19;4882911;29;20691;-71
2023/09/10 06:23:47;;;;;;;8.73;7.83;;;;;;;16.85;100.00;102022.28;4879943;29;20185;-70
2023/09/10 06:26:13;;;;;;;9.47;8.57;;;;;;;16.77;100.00;102017.09;4881248;29;20599;-70
2023/09/10 06:28:39;;;;;;;8.20;7.40;;;;;;;17.06;100.00;102038.28;4868379;29;20557;-71
2023/09/10 06:31:06;;;;;;;9.07;8.17;;;;;;;17.05;100.00;102033.09;4873078;29;20544;-71
2023/09/10 06:33:33;;;;;;;9.57;8.67;;;;;;;16.96;100.00;102048.75;4873490;29;20208;-71
2023/09/10 06:35:58;;;;;;;9.30;8.33;;;;;;;17.06;100.00;102054.53;4867346;29;20457;-70
2023/09/10 06:38:24;;;;;;;9.60;8.60;;;;;;;15.89;100.00;101898.22;4870738;29;20819;-71
2023/09/10 06:40:51;;;;;;;8.70;7.80;;;;;;;16.69;100.00;102021.66;4865883;29;20236;-70
2023/09/10 06:43:16;;;;;;;9.47;8.57;;;;;;;16.93;100.00;102079.81;4872719;29;20232;-71
2023/09/10 06:45:43;;;;;;;8.73;7.70;;;;;;;16.90;100.00;102091.06;4874648;29;20477;-70
2023/09/10 06:48:09;;;;;;;9.20;8.30;;;;;;;17.01;100.00;102097.72;4875913;29;20185;-71
2023/09/10 06:50:34;;;;;;;8.80;7.90;;;;;;;17.06;100.00;102103.31;4882825;29;20447;-71
2023/09/10 06:52:59;;;;;;;9.70;8.70;;;;;;;17.28;100.00;102100.38;4879440;29;20212;-71
2023/09/10 06:55:25;;;;;;;9.03;8.13;;;;;;;17.36;100.00;102083.88;4883117;29;20680;-70
2023/09/10 06:57:50;;;;;;;10.97;8.20;;;;;;;17.08;100.00;102095.00;4882621;29;20275;-70
2023/09/10 07:00:16;;;;;;;9.00;8.07;;;;;;;17.19;100.00;102116.03;4873480;29;20624;-71
2023/09/10 07:02:41;;;;;;;9.73;8.73;;;;;;;16.55;100.00;101992.94;4873597;29;20223;-71
2023/09/10 07:05:07;;;;;;;8.40;7.60;;;;;;;17.25;100.00;102098.09;4882685;29;20215;-70
2023/09/10 07:07:33;;;;;;;8.03;7.27;;;;;;;17.13;100.00;102108.75;4882419;29;20189;-71
2023/09/10 07:09:58;;;;;;;7.60;6.83;;;;;;;16.72;100.00;102047.47;4882148;29;20280;-71
2023/09/10 07:12:23;;;;;;;8.27;7.27;;;;;;;16.84;100.00;102045.84;4887536;29;20224;-71
2023/09/10 07:14:49;;;;;;;8.27;7.47;;;;;;;17.26;100.00;102122.28;4888224;29;20185;-71
2023/09/10 07:17:15;;;;;;;8.60;7.60;;;;;;;17.60;100.00;102123.03;4881103;29;20200;-69
2023/09/10 07:19:41;;;;;;;7.33;6.63;;;;;;;17.65;100.00;102122.34;4875277;29;20196;-69
2023/09/10 07:22:06;;;;;;;8.63;7.73;;;;;;;17.58;100.00;102084.41;4874784;29;20509;-69
2023/09/10 07:24:32;;;;;;;9.17;8.00;;;;;;;17.80;100.00;102110.22;4873934;29;20787;-68
2023/09/10 07:26:58;;;;;;;8.13;7.33;;;;;;;17.87;100.00;102095.78;4880414;29;20200;-67
2023/09/10 07:29:24;;;;;;;8.70;7.90;;;;;;;18.00;100.00;102093.84;4881835;29;20185;-69
2023/09/10 07:31:50;;;;;;;8.50;7.60;;;;;;;18.23;100.00;102117.72;4875114;29;20880;-69
2023/09/10 07:34:15;;;;;;;10.07;8.30;;;;;;;18.12;100.00;102080.41;4886015;29;20439;-68
2023/09/10 07:36:43;;;;;;;9.10;7.40;;;;;;;18.42;100.00;102109.66;4884546;29;20191;-68
2023/09/10 07:39:08;;;;;;;8.90;8.00;;;;;;;18.63;100.00;102106.56;4870781;29;20189;-65
2023/09/10 07:41:34;;;;;;;9.90;8.40;;;;;;;18.60;100.00;102104.31;4874475;29;20635;-64
2023/09/10 07:44:02;;;;;;;11.17;8.40;;;;;;;18.84;100.00;102096.38;4871505;29;20216;-67
2023/09/10 07:46:28;;;;;;;9.60;8.60;;;;;;;18.70;100.00;102066.56;4875162;29;20576;-66
2023/09/10 07:48:53;;;;;;;10.20;9.20;;;;;;;18.82;100.00;102079.47;4874296;29;20944;-66
2023/09/10 07:51:18;;;;;;;9.50;8.27;;;;;;;19.08;100.00;102081.91;4890326;29;20438;-66
2023/09/10 07:53:44;;;;;;;10.23;9.00;;;;;;;19.13;100.00;102076.63;4873361;29;21367;-66
2023/09/10 07:56:09;;;;;;;10.00;8.97;;;;;;;19.25;100.00;102071.28;4878756;29;20177;-70
2023/09/10 07:58:35;;;;;;;10.57;9.40;;;;;;;19.20;100.00;102060.22;4873227;29;20185;-69
2023/09/10 08:01:00;;;;;;;10.53;9.27;;;;;;;19.26;100.00;102050.34;4890234;29;20218;-68
2023/09/10 08:03:26;;;;;;;10.53;9.37;;;;;;;19.17;100.00;102015.28;4876434;29;20217;-69
2023/09/10 08:05:52;;;;;;;11.00;9.00;;;;;;;19.37;100.00;102049.56;4895771;29;20667;-70
2023/09/10 08:08:17;;;;;;;9.57;8.30;;;;;;;19.45;100.00;102029.41;4880026;29;20193;-70
2023/09/10 08:10:45;;;;;;;10.30;8.70;;;;;;;19.60;100.00;102051.59;4884524;29;20445;-68
2023/09/10 08:13:12;;;;;;;10.43;8.83;;;;;;;19.48;100.00;101997.13;4872103;29;20213;-68
2023/09/10 08:15:38;;;;;;;11.70;9.70;;;;;;;19.44;100.00;102017.69;4883328;29;20433;-68
2023/09/10 08:18:08;;;;;;;10.10;8.93;;;;;;;19.69;100.00;102011.31;4879674;29;20763;-69
2023/09/10 08:20:34;;;;;;;10.53;8.40;;;;;;;20.00;100.00;102023.84;4877507;29;20189;-68
2023/09/10 08:22:59;;;;;;;12.00;8.93;;;;;;;20.00;100.00;102032.84;4880462;29;20484;-68
2023/09/10 08:25:25;;;;;;;8.73;7.83;;;;;;;20.07;100.00;102019.94;4880838;29;20196;-69
2023/09/10 08:27:50;;;;;;;11.27;9.83;;;;;;;20.15;100.00;102031.56;4880648;29;21210;-69
2023/09/10 08:30:16;;;;;;;12.17;9.40;;;;;;;20.25;100.00;102032.66;4867838;29;20197;-66
2023/09/10 08:32:45;;;;;;;13.13;11.50;;;;;;;20.14;100.00;102019.03;4878218;29;20209;-67
2023/09/10 08:35:11;;;;;;;14.53;11.87;;;;;;;20.16;100.00;102020.41;4879092;29;20204;-68
2023/09/10 08:37:36;;;;;;;16.63;14.93;;;;;;;20.05;100.00;102008.47;4891524;29;20448;-68
2023/09/10 08:40:26;;;;;;;13.00;11.03;;;;;;;20.42;100.00;102002.78;4859213;29;20192;-73
2023/09/10 08:42:58;;;;;;;12.50;11.20;;;;;;;20.28;100.00;102007.66;4863774;29;20799;-71
2023/09/10 08:45:24;;;;;;;11.73;10.03;;;;;;;20.19;100.00;101961.91;4876484;29;20445;-74
2023/09/10 08:47:54;;;;;;;11.33;9.80;;;;;;;20.52;100.00;101994.91;4896101;29;20960;-74
2023/09/10 08:50:22;;;;;;;9.60;8.47;;;;;;;20.60;100.00;102004.63;4887035;29;20530;-71
2023/09/10 08:52:48;;;;;;;10.80;9.27;;;;;;;20.61;100.00;102006.28;4877416;29;20466;-72
2023/09/10 08:55:14;;;;;;;10.40;8.43;;;;;;;20.79;100.00;101988.13;4873410;29;21051;-72
2023/09/10 08:57:42;;;;;;;9.60;8.30;;;;;;;20.88;100.00;102000.31;4866479;29;20457;-72
2023/09/10 09:00:15;;;;;;;12.43;10.63;;;;;;;20.75;100.00;101971.44;4878857;29;20952;-71
2023/09/10 09:02:45;;;;;;;13.17;11.17;;;;;;;20.83;100.00;101983.84;4899093;29;20516;-72
2023/09/10 09:05:11;;;;;;;12.10;10.53;;;;;;;20.80;100.00;101982.47;4889464;29;20413;-72
2023/09/10 09:07:47;;;;;;;13.30;11.07;;;;;;;21.00;100.00;101990.22;4883330;29;20940;-71
2023/09/10 09:10:21;;;;;;;14.07;12.57;;;;;;;20.98;100.00;101989.66;4888390;29;20532;-71
2023/09/10 09:12:49;;;;;;;11.17;9.77;;;;;;;21.06;100.00;101989.28;4900410;29;20484;-72
2023/09/10 09:15:16;;;;;;;13.50;11.73;;;;;;;20.90;100.00;101962.75;4897995;29;20947;-71
2023/09/10 09:17:43;;;;;;;11.13;9.43;;;;;;;20.90;100.00;101944.47;4902119;29;20504;-71
2023/09/10 09:20:12;;;;;;;10.90;9.80;;;;;;;21.21;100.00;101986.03;4888573;29;20429;-72
2023/09/10 09:22:43;;;;;;;11.93;9.77;;;;;;;21.10;100.00;101933.16;4901260;29;21049;-72
2023/09/10 09:25:10;;;;;;;11.20;9.53;;;;;;;21.22;100.00;101944.03;4888156;29;20441;-72
2023/09/10 09:27:37;;;;;;;12.00;9.37;;;;;;;21.48;100.00;101963.66;4899406;29;20480;-72
2023/09/10 09:30:06;;;;;;;9.33;8.33;;;;;;;21.67;100.00;101978.75;4898160;29;20822;-72
2023/09/10 09:32:37;;;;;;;14.43;12.00;;;;;;;21.59;100.00;101947.22;4885046;29;20480;-72
2023/09/10 09:35:08;;;;;;;12.83;10.63;;;;;;;21.41;100.00;101910.03;4886985;29;20453;-71
2023/09/10 09:37:35;;;;;;;12.03;9.93;;;;;;;21.42;100.00;101894.50;4885043;29;20964;-72
2023/09/10 09:40:02;;;;;;;10.73;9.43;;;;;;;21.65;100.00;101939.94;4886246;29;20926;-71
2023/09/10 09:42:28;;;;;;;10.40;9.17;;;;;;;21.41;100.00;101887.38;4875359;29;20520;-72
2023/09/10 09:44:54;;;;;;;11.50;9.70;;;;;;;21.82;100.00;101929.03;4884038;29;20473;-71
2023/09/10 09:47:20;;;;;;;11.27;8.97;;;;;;;21.99;100.00;101942.72;4885253;29;20217;-71
2023/09/10 09:49:47;;;;;;;11.37;9.50;;;;;;;21.96;100.00;101943.16;4900675;29;20898;-72
2023/09/10 09:52:13;;;;;;;8.50;7.57;;;;;;;22.05;100.00;101948.00;4880604;29;20205;-73
2023/09/10 09:54:39;;;;;;;10.60;9.00;;;;;;;22.16;100.00;101943.53;4881586;29;20549;-72
2023/09/10 09:57:05;;;;;;;9.07;7.13;;;;;;;22.20;100.00;101938.41;4884832;29;20685;-72
2023/09/10 09:59:35;;;;;;;9.30;7.70;;;;;;;21.63;100.00;101841.06;4887459;29;20433;-72
2023/09/10 10:02:02;;;;;;;9.33;8.33;;;;;;;22.26;100.00;101930.03;4901917;29;20564;-71
2023/09/10 10:04:31;;;;;;;10.33;7.80;;;;;;;22.22;100.00;101919.88;4885592;29;20592;-72
2023/09/10 10:06:56;;;;;;;10.10;9.00;;;;;;;22.26;100.00;101921.00;4901686;29;20532;-71
2023/09/10 10:09:22;;;;;;;9.27;8.10;;;;;;;22.00;100.00;101873.31;4886187;29;20521;-71
2023/09/10 10:11:48;;;;;;;8.30;7.40;;;;;;;22.30;100.00;101881.16;4878222;29;20992;-71
2023/09/10 10:14:14;;;;;;;9.13;8.23;;;;;;;22.44;100.00;101904.31;4869515;29;20189;-72
2023/09/10 10:16:40;;;;;;;9.40;8.13;;;;;;;22.62;100.00;101936.00;4885859;29;20426;-71
2023/09/10 10:19:10;;;;;;;9.63;8.47;;;;;;;22.43;100.00;101874.50;4863957;29;21019;-71
2023/09/10 10:21:36;;;;;;;10.70;8.67;;;;;;;22.69;100.00;101919.41;4872102;29;20794;-73
2023/09/10 10:24:02;;;;;;;11.70;9.33;;;;;;;22.73;100.00;101910.44;4888216;29;21177;-72
2023/09/10 10:26:29;;;;;;;10.20;8.63;;;;;;;22.68;100.00;101883.03;4867123;29;20688;-75
2023/09/10 10:28:55;;;;;;;9.87;8.70;;;;;;;22.91;100.00;101919.41;4880386;29;20449;-75
2023/09/10 10:31:29;;;;;;;11.20;8.30;;;;;;;23.07;100.00;101926.75;4879796;29;20449;-75
2023/09/10 10:33:57;;;;;;;8.80;7.90;;;;;;;23.02;100.00;101916.56;4882141;29;20509;-75
2023/09/10 10:36:28;;;;;;;9.93;8.90;;;;;;;23.06;100.00;101916.06;4878756;29;20437;-75
2023/09/10 10:38:55;;;;;;;10.30;8.20;;;;;;;23.04;100.00;101874.44;4880902;29;20473;-75
2023/09/10 10:41:25;;;;;;;9.10;8.10;;;;;;;23.27;100.00;101906.16;4890702;29;21531;-75
2023/09/10 10:44:11;;;;;;;8.67;7.10;;;;;;;23.35;100.00;101894.75;4885117;29;20963;-75
2023/09/10 10:46:38;;;;;;;9.67;8.00;;;;;;;23.12;100.00;101852.94;4865085;29;20449;-75
2023/09/10 10:49:06;;;;;;;10.70;9.60;;;;;;;23.37;100.00;101907.06;4877143;29;20440;-75
2023/09/10 10:51:37;;;;;;;9.43;8.40;;;;;;;23.37;100.00;101898.84;4882949;29;20433;-75
2023/09/10 10:54:03;;;;;;;8.77;7.63;;;;;;;23.55;100.00;101892.19;4896812;29;20521;-75
2023/09/10 10:56:29;;;;;;;8.67;7.67;;;;;;;23.40;100.00;101853.72;4879865;29;20512;-75
2023/09/10 10:58:54;;;;;;;9.77;8.03;;;;;;;23.56;100.00;101899.31;4880183;29;20205;-75
2023/09/10 11:01:20;;;;;;;7.77;6.97;;;;;;;23.80;100.00;101904.47;4885657;29;20209;-75
2023/09/10 11:03:47;;;;;;;16.80;13.03;;;;;;;23.44;100.00;101871.28;4886643;29;20788;-75
2023/09/10 11:06:13;;;;;;;13.73;10.40;;;;;;;23.79;100.00;101889.13;4879163;29;20189;-74
2023/09/10 11:08:42;;;;;;;8.90;8.00;;;;;;;24.09;100.00;101888.53;4900686;29;20436;-75
2023/09/10 11:11:33;;;;;;;8.87;6.90;;;;;;;23.88;100.00;101891.13;4884897;29;20710;-75